Terminal Aerodrome Forecast
Issued by NWS

Home | Current Version | Previous Version | Text Only | Print | Product List | Glossary On
Versions: 1 2 3 4 5 6 7 8 9 10 11 12 13
000
FTUS41 KLWX 191142 RRA
TAFMTN
TAF
KMTN 191142Z 1912/2012 06010KT P6SM BKN200
     FM191500 10011KT P6SM BKN200
     FM200100 10014KT P6SM -RA OVC025
     FM200300 10017G25KT P6SM -RA OVC010
     FM200600 09020G28KT 3SM +RA OVC008
     FM201000 11015KT 3SM RA OVC008 WS020/13040KT=

USA.gov is the U.S. government's official web portal to all federal, state and local government web resources and services.